createdAt,value
2019-05-17T00:01:41.095Z,23.43
2019-05-17T00:06:47.451Z,23.27
2019-05-17T00:11:50.939Z,23.97
2019-05-17T00:16:57.105Z,22.20
2019-05-17T00:22:01.111Z,23.40
2019-05-17T00:27:06.739Z,22.93
2019-05-17T00:32:10.902Z,22.07
2019-05-17T00:37:17.178Z,21.00
2019-05-17T00:42:21.028Z,21.43
2019-05-17T00:47:26.579Z,21.37
2019-05-17T00:52:31.851Z,21.40
2019-05-17T00:57:36.913Z,20.60
2019-05-17T01:02:41.350Z,18.47
2019-05-17T01:07:47.046Z,20.30
2019-05-17T01:12:52.071Z,20.10
2019-05-17T01:17:56.617Z,18.97
2019-05-17T01:23:01.152Z,18.57
2019-05-17T01:28:07.610Z,18.03
2019-05-17T01:33:12.486Z,17.92
2019-05-17T01:38:17.684Z,18.73
2019-05-17T01:43:22.265Z,19.17
2019-05-17T01:48:27.070Z,17.77
2019-05-17T01:53:32.502Z,17.87
2019-05-17T01:58:37.171Z,16.97
2019-05-17T02:03:41.795Z,16.67
2019-05-17T02:08:47.562Z,17.33
2019-05-17T02:13:51.922Z,16.73
2019-05-17T02:18:57.316Z,15.50
2019-05-17T02:24:01.662Z,15.00
2019-05-17T02:29:05.962Z,15.00
2019-05-17T02:34:13.880Z,15.13
2019-05-17T02:39:16.783Z,15.87
2019-05-17T02:44:23.433Z,16.60
2019-05-17T02:49:26.636Z,16.17
2019-05-17T02:54:32.803Z,14.73
2019-05-17T02:59:36.905Z,14.37
2019-05-17T03:04:43.286Z,14.47
2019-05-17T03:09:47.031Z,14.13
2019-05-17T03:14:52.886Z,13.43
2019-05-17T03:19:57.320Z,13.20
2019-05-17T03:25:03.166Z,12.00
2019-05-17T03:30:07.443Z,11.87
2019-05-17T03:35:16.972Z,11.77
2019-05-17T03:40:55.264Z,11.33
2019-05-17T03:45:23.033Z,12.43
2019-05-17T03:50:27.258Z,10.90
2019-05-17T03:55:33.329Z,11.37
2019-05-17T04:00:37.996Z,10.95
2019-05-17T04:05:43.084Z,10.97
2019-05-17T04:10:47.196Z,10.43
2019-05-17T04:15:53.040Z,10.60
2019-05-17T04:20:57.367Z,9.87
2019-05-17T04:26:04.189Z,10.37
2019-05-17T04:31:07.243Z,10.90
2019-05-17T04:36:13.091Z,10.83
2019-05-17T04:41:34.552Z,10.27
2019-05-17T04:46:23.738Z,10.50
2019-05-17T04:51:28.051Z,10.93
2019-05-17T04:56:33.422Z,11.20
2019-05-17T05:01:37.930Z,10.40
2019-05-17T05:06:43.563Z,10.67
2019-05-17T05:11:59.680Z,11.30
2019-05-17T05:16:54.331Z,10.83
2019-05-17T05:21:58.191Z,11.17
2019-05-17T05:27:02.597Z,10.30
2019-05-17T05:32:06.654Z,10.70
2019-05-17T05:37:12.502Z,11.33
2019-05-17T05:42:16.210Z,11.77
2019-05-17T05:47:22.178Z,11.90
2019-05-17T05:52:26.248Z,12.87
2019-05-17T05:57:32.195Z,12.43
2019-05-17T06:02:36.979Z,12.43
2019-05-17T06:07:41.876Z,12.57
2019-05-17T06:12:46.622Z,12.93
2019-05-17T06:17:52.016Z,13.17
2019-05-17T06:22:56.372Z,12.77
2019-05-17T06:28:01.599Z,14.17
2019-05-17T06:33:06.091Z,13.77
2019-05-17T06:38:12.120Z,13.40
2019-05-17T06:43:16.086Z,14.87
2019-05-17T06:48:22.331Z,13.93
2019-05-17T06:53:25.534Z,15.03
2019-05-17T06:58:31.536Z,14.80
2019-05-17T07:03:35.578Z,15.20
2019-05-17T07:08:40.511Z,14.17
2019-05-17T07:13:44.382Z,14.10
2019-05-17T07:18:49.406Z,14.90
2019-05-17T07:23:53.743Z,14.20
2019-05-17T07:28:59.294Z,14.07
2019-05-17T07:34:03.855Z,13.13
2019-05-17T07:39:10.594Z,13.43
2019-05-17T07:44:13.420Z,13.97
2019-05-17T07:49:19.965Z,13.47
2019-05-17T07:54:24.265Z,12.60
2019-05-17T07:59:29.466Z,9.47
2019-05-17T08:04:33.669Z,10.20
2019-05-17T08:09:40.266Z,8.43
2019-05-17T08:14:43.692Z,7.53
2019-05-17T08:19:49.643Z,7.97
2019-05-17T08:24:53.469Z,6.60
2019-05-17T08:29:59.780Z,5.80
2019-05-17T08:35:23.349Z,6.57
2019-05-17T08:40:27.559Z,5.27
2019-05-17T08:45:32.527Z,5.20
2019-05-17T08:50:36.543Z,4.60
2019-05-17T08:55:43.104Z,5.17
2019-05-17T09:00:50.518Z,5.10
2019-05-17T09:05:53.888Z,4.60
2019-05-17T09:11:00.374Z,4.60
2019-05-17T09:16:04.182Z,3.70
2019-05-17T09:21:09.703Z,4.07
2019-05-17T09:26:14.171Z,3.63
2019-05-17T09:31:20.387Z,4.40
2019-05-17T09:36:25.214Z,4.07
2019-05-17T09:41:29.455Z,4.27
2019-05-17T09:46:33.661Z,4.50
2019-05-17T09:51:39.635Z,3.80
2019-05-17T09:56:43.186Z,3.50
2019-05-17T10:01:49.388Z,3.70
2019-05-17T10:06:52.886Z,3.50
2019-05-17T10:11:56.755Z,3.87
2019-05-17T10:17:01.174Z,4.13
2019-05-17T10:22:05.395Z,4.13
2019-05-17T10:27:10.914Z,4.60
2019-05-17T10:32:14.863Z,4.50
2019-05-17T10:37:20.372Z,4.87
2019-05-17T10:42:24.633Z,4.70
2019-05-17T10:47:30.099Z,5.17
2019-05-17T10:52:34.294Z,5.70
2019-05-17T10:57:38.550Z,6.00
2019-05-17T11:02:42.847Z,6.13
2019-05-17T11:07:47.398Z,7.20
2019-05-17T11:12:51.354Z,8.50
2019-05-17T11:17:55.568Z,6.53
2019-05-17T11:22:59.462Z,6.33
2019-05-17T11:28:03.757Z,6.37
2019-05-17T11:33:07.867Z,5.90
2019-05-17T11:38:11.998Z,7.13
2019-05-17T11:43:16.540Z,6.30
2019-05-17T11:48:20.492Z,7.30
2019-05-17T11:53:24.363Z,7.63
2019-05-17T11:58:28.823Z,7.47
2019-05-17T12:03:33.088Z,7.53
2019-05-17T12:08:37.363Z,7.40
2019-05-17T12:13:43.633Z,7.80
2019-05-17T12:18:47.546Z,8.13
2019-05-17T12:23:51.666Z,8.47
2019-05-17T12:28:55.870Z,7.63
2019-05-17T12:34:00.118Z,8.43
2019-05-17T12:39:05.487Z,7.33
2019-05-17T12:44:09.678Z,7.17
2019-05-17T12:49:13.962Z,8.20
2019-05-17T12:54:18.503Z,7.73
2019-05-17T12:59:22.469Z,7.73
2019-05-17T13:04:26.687Z,7.73
2019-05-17T13:09:31.332Z,6.70
2019-05-17T13:14:35.380Z,6.43
2019-05-17T13:19:39.816Z,5.37
2019-05-17T13:24:44.126Z,6.57
2019-05-17T13:29:49.711Z,6.17
2019-05-17T13:34:54.239Z,6.03
2019-05-17T13:39:58.853Z,5.73
2019-05-17T13:45:03.411Z,7.03
2019-05-17T13:50:08.974Z,7.43
2019-05-17T13:55:13.294Z,6.70
2019-05-17T14:00:29.364Z,6.40
2019-05-17T14:05:33.384Z,6.60
2019-05-17T14:10:37.255Z,7.57
2019-05-17T14:15:42.539Z,7.90
2019-05-17T14:20:46.487Z,8.87
2019-05-17T14:25:50.606Z,8.33
2019-05-17T14:30:54.804Z,8.40
2019-05-17T14:35:58.755Z,8.70
2019-05-17T14:41:08.075Z,8.17
2019-05-17T14:46:08.224Z,7.03
2019-05-17T14:51:12.509Z,7.23
2019-05-17T14:56:16.852Z,8.57
2019-05-17T15:01:20.724Z,8.77
2019-05-17T15:06:24.892Z,9.90
2019-05-17T15:11:28.763Z,11.30
2019-05-17T15:16:32.901Z,9.27
2019-05-17T15:21:36.767Z,8.43
2019-05-17T15:26:40.697Z,7.90
2019-05-17T15:31:44.554Z,8.97
2019-05-17T15:36:48.748Z,6.23
2019-05-17T15:41:53.034Z,6.87
2019-05-17T15:46:57.039Z,7.93
2019-05-17T15:52:01.587Z,6.73
2019-05-17T15:57:06.206Z,7.37
2019-05-17T16:02:10.438Z,6.73
2019-05-17T16:07:14.303Z,5.90
2019-05-17T16:12:19.694Z,5.33
2019-05-17T16:17:23.558Z,6.43
2019-05-17T16:22:27.787Z,6.03
2019-05-17T16:27:33.162Z,5.83
2019-05-17T16:32:39.472Z,6.30
2019-05-17T16:37:43.959Z,6.77
2019-05-17T16:42:48.166Z,4.60
2019-05-17T16:47:52.645Z,5.03
2019-05-17T16:53:05.410Z,5.07
2019-05-17T16:58:02.158Z,5.50
2019-05-17T17:03:06.125Z,4.97
2019-05-17T17:08:09.994Z,5.83
2019-05-17T17:13:14.445Z,5.03
2019-05-17T17:18:18.457Z,4.60
2019-05-17T17:23:22.334Z,5.00
2019-05-17T17:28:26.872Z,5.07
2019-05-17T17:33:31.137Z,4.77
2019-05-17T17:38:35.018Z,4.87
2019-05-17T17:43:38.903Z,5.37
2019-05-17T17:48:45.780Z,4.70
2019-05-17T17:53:48.685Z,5.03
2019-05-17T17:58:52.968Z,5.40
2019-05-17T18:03:57.301Z,5.03
2019-05-17T18:09:01.337Z,4.70
2019-05-17T18:14:13.259Z,5.27
2019-05-17T18:19:13.418Z,4.93
2019-05-17T18:24:18.092Z,4.87
2019-05-17T18:29:22.644Z,5.47
2019-05-17T18:34:26.915Z,4.70
2019-05-17T18:39:31.514Z,4.10
2019-05-17T18:44:36.047Z,4.72
2019-05-17T18:49:41.667Z,4.53
2019-05-17T18:54:45.658Z,4.53
2019-05-17T18:59:50.816Z,4.20
2019-05-17T19:04:55.103Z,4.20
2019-05-17T19:09:59.396Z,4.60
2019-05-17T19:15:04.911Z,4.30
2019-05-17T19:20:09.143Z,4.73
2019-05-17T19:25:15.151Z,4.80
2019-05-17T19:30:19.283Z,5.13
2019-05-17T19:35:23.548Z,5.13
2019-05-17T19:40:28.200Z,4.80
2019-05-17T19:45:33.550Z,4.80
2019-05-17T19:50:37.808Z,4.90
2019-05-17T19:55:42.110Z,5.25
2019-05-17T20:00:46.408Z,4.73
2019-05-17T20:05:50.944Z,4.90
2019-05-17T20:10:54.943Z,4.80
2019-05-17T20:15:58.825Z,4.57
2019-05-17T20:21:03.037Z,4.67
2019-05-17T20:26:07.199Z,4.57
2019-05-17T20:31:11.425Z,4.80
2019-05-17T20:36:15.384Z,5.10
2019-05-17T20:41:19.497Z,5.00
2019-05-17T20:46:23.593Z,5.97
2019-05-17T20:51:27.518Z,5.30
2019-05-17T20:56:33.261Z,5.80
2019-05-17T21:01:37.253Z,5.90
2019-05-17T21:06:41.490Z,5.93
2019-05-17T21:11:45.442Z,5.70
2019-05-17T21:16:50.607Z,6.13
2019-05-17T21:21:54.882Z,6.07
2019-05-17T21:26:59.420Z,6.27
2019-05-17T21:32:03.729Z,6.57
2019-05-17T21:37:08.239Z,6.10
2019-05-17T21:42:12.199Z,6.33
2019-05-17T21:47:16.067Z,6.20
2019-05-17T21:52:20.524Z,6.17
2019-05-17T21:57:24.722Z,6.70
2019-05-17T22:02:29.272Z,6.90
2019-05-17T22:07:33.226Z,7.17
2019-05-17T22:12:37.374Z,7.00
2019-05-17T22:17:41.523Z,7.40
2019-05-17T22:22:45.402Z,6.87
2019-05-17T22:27:49.702Z,6.60
2019-05-17T22:32:53.811Z,7.23
2019-05-17T22:37:58.248Z,9.47
2019-05-17T22:43:02.537Z,7.50
2019-05-17T22:48:07.135Z,6.80
2019-05-17T22:53:11.486Z,7.33
2019-05-17T22:58:16.128Z,7.30
2019-05-17T23:03:22.024Z,8.30
2019-05-17T23:08:26.337Z,8.80
2019-05-17T23:13:30.644Z,8.37
2019-05-17T23:18:34.829Z,8.20
2019-05-17T23:23:38.934Z,7.20
2019-05-17T23:28:42.798Z,7.73
2019-05-17T23:33:46.990Z,7.67
2019-05-17T23:38:51.250Z,7.77
2019-05-17T23:43:55.448Z,7.90
2019-05-17T23:48:59.743Z,8.00
2019-05-17T23:54:04.122Z,7.78
2019-05-17T23:59:08.081Z,7.97
